Terminal Aerodrome Forecast
Issued by NWS

Home | Current Version | Previous Version | Text Only | Print | Product List | Glossary On
Versions: 1 2 3 4 5 6 7 8 9 10 11 12 13 14 15 16 17 18 19 20 21 22 23 24 25 26 27 28 29 30
000
FTUS43 KDLH 221225 AAA
TAFHYR
TAF AMD
KHYR 221225Z 2212/2312 33006KT P6SM BKN006
     FM221400 32008KT P6SM SKC
     FM221600 30011G18KT P6SM SCT035
     FM222300 31008KT P6SM SCT040
     FM230600 VRB03KT P6SM FEW040=

USA.gov is the U.S. government's official web portal to all federal, state and local government web resources and services.